• Join FlightAware (Why Join?)
  • Login
  • US Flag 
04:09PM EDT


 

Airport Tracker/Info


-or-


 

Live Flight TrackerFlight Track Log ✈ ASQ5482 ✈ 10-Sep-2013 ✈ KATL - KCRW

Flight Track Log - Related Links

Times and Time Zones

All times are in EDT time to prevent confusion due to time zone crossing. See the ASQ5482 flight status page for this flight to view local times or setup timezone preferences in your user account.

Time Position Orientation Groundspeed Altitude Reporting Facility
EDT Latitude Longitude Course Direction KTS MPH feet Rate Location/Type
04:08PM 33.6500 -84.3667 76° East 189 217 2,500  Level Atlanta TRACON
04:09PM 33.6667 -84.2833 76° East 252 290 4,300 2,100 Climbing Atlanta TRACON
04:10PM 33.6833 -84.2000 76° East 268 308 6,700 2,340 Climbing Atlanta TRACON
04:11PM 33.7500 -84.1833 12° North 286 329 8,800 1,680 Climbing Atlanta TRACON
04:12PM 33.8333 -84.1833 360° North 296 341 10,000 600 Climbing Atlanta TRACON
04:13PM 33.9167 -84.2167 342° North 311 358 10,000 1,140 Level Atlanta TRACON
04:16PM 34.0170 -84.2667 North  Level FlightAware Approximate
04:17PM 34.3242 -84.2728 11° North 345 397 16,100  Level Atlanta Center
04:18PM 34.4119 -84.2503 12° North 345 397 16,900 900 Climbing Atlanta Center
04:19PM 34.5161 -84.2278 10° North 357 411 17,900 900 Climbing Atlanta Center
04:20PM 34.6164 -84.2028 12° North 364 419 18,700 960 Climbing Atlanta Center
04:21PM 34.7272 -84.1803 North 364 419 19,900 1,080 Climbing Atlanta Center
04:22PM 34.8272 -84.1553 12° North 369 425 20,900 840 Climbing Atlanta Center
04:23PM 34.6996 -84.1667 11° North  Level FlightAware Approximate
04:23PM 34.9317 -84.1300 11° North 369 425 21,600  Level Atlanta Center
04:24PM 35.0381 -84.1047 11° North 369 425 22,100 480 Climbing Atlanta Center
04:25PM 35.1486 -84.0819 10° North 380 437 22,600 480 Climbing Atlanta Center
04:26PM 35.2572 -84.0514 13° North 391 450 23,100 480 Climbing Atlanta Center
04:27PM 35.3697 -84.0261 10° North 396 456 23,600 420 Climbing Atlanta Center
04:28PM 35.4867 -83.9981 11° North 402 463 24,000 180 Climbing Atlanta Center
04:29PM 35.6014 -83.9672 12° North 414 476 24,000  Level Atlanta Center
04:30PM 35.7203 -83.9389 11° North 419 482 24,000  Level Atlanta Center
04:31PM 35.8414 -83.9133 10° North 431 496 24,000  Level Atlanta Center
04:32PM 35.9581 -83.8617 20° North 431 496 24,000  Level Atlanta Center
04:33PM 36.0706 -83.7922 27° Northeast 436 502 24,000 120 Level Atlanta Center
04:34PM 36.1375 -83.7475 28° Northeast 450 518 24,300 480 Climbing Indianapolis Center
04:35PM 36.2686 -83.6661 27° Northeast 442 509 24,900 300 Climbing Indianapolis Center
04:36PM 36.3764 -83.5978 27° Northeast 438 504 25,000  Climbing Indianapolis Center
04:37PM 36.4844 -83.5275 28° Northeast 439 505 25,000  Level Indianapolis Center
04:38PM 36.6036 -83.4533 27° Northeast 449 517 25,000  Level Indianapolis Center
04:39PM 36.7056 -83.3647 35° Northeast 444 511 25,000 -180 Level Indianapolis Center
04:40PM 36.8067 -83.2697 37° Northeast 448 516 24,700 -540 Descending Indianapolis Center
04:41PM 36.9122 -83.1700 37° Northeast 467 537 24,000 -360 Descending Indianapolis Center
04:42PM 37.0183 -83.0703 37° Northeast 468 539 24,000 -480 Level Indianapolis Center
04:43PM 37.1242 -82.9683 38° Northeast 471 542 23,100 -960 Descending Indianapolis Center
04:44PM 37.2300 -82.8669 37° Northeast 474 545 22,100 -1,080 Descending Indianapolis Center
04:45PM 37.3469 -82.7533 38° Northeast 454 522 20,900 -1,080 Descending Indianapolis Center
04:46PM 37.4444 -82.6606 37° Northeast 441 507 19,900 -1,020 Descending Indianapolis Center
04:47PM 37.5375 -82.5706 37° Northeast 426 490 18,900 -960 Descending Indianapolis Center
04:48PM 37.6306 -82.4792 38° Northeast 424 488 17,900 -1,020 Descending Indianapolis Center
04:50PM 37.7219 -82.3883 38° Northeast 419 482 16,800 -1,320 Descending Indianapolis Center
04:51PM 37.8125 -82.3017 37° Northeast 411 473 15,200 -1,620 Descending Indianapolis Center
04:52PM 37.9147 -82.2025 37° Northeast 398 458 13,500 -1,620 Descending Indianapolis Center
04:53PM 38.0003 -82.1183 38° Northeast 394 453 11,900 -1,260 Descending Indianapolis Center
04:54PM 38.0864 -82.0344 37° Northeast 391 450 11,000 -840 Descending Indianapolis Center
04:55PM 38.1539 -81.9561 42° Northeast 333 383 10,200 -1,260 Descending Indianapolis Center
04:56PM 38.2139 -81.8914 40° Northeast 289 333 8,500 -1,740 Descending Indianapolis Center
04:57PM 38.2703 -81.8289 41° Northeast 273 314 6,700 -1,740 Descending Indianapolis Center
04:58PM 38.3386 -81.7514 42° Northeast 274 315 5,000 -1,320 Descending Indianapolis Center
04:59PM 38.3878 -81.6914 44° Northeast 250 288 4,000 -960 Descending Indianapolis Center
05:00PM 38.4358 -81.6378 41° Northeast 237 273 3,100 -780 Descending Indianapolis Center
05:01PM 38.4503 -81.5819 72° East 206 237 2,500 -660 Descending Indianapolis Center
05:02PM 38.4167 -81.5369 134° Southeast 187 215 1,800 -660 Descending Indianapolis Center
05:03PM 38.3908 -81.5733 228° Southwest 161 185 1,200 -600 Descending Indianapolis Center